sensor_id;sensor_type;location;lat;lon;timestamp;temperature;humidity
41457;DHT22;27197;51.752;5.220;2023-08-31T00:00:35;22.00;66.30
41457;DHT22;27197;51.752;5.220;2023-08-31T00:03:06;22.10;69.80
41457;DHT22;27197;51.752;5.220;2023-08-31T00:05:39;21.90;64.50
41457;DHT22;27197;51.752;5.220;2023-08-31T00:08:11;21.90;71.00
41457;DHT22;27197;51.752;5.220;2023-08-31T00:10:41;21.90;69.60
41457;DHT22;27197;51.752;5.220;2023-08-31T00:13:11;22.00;69.90
41457;DHT22;27197;51.752;5.220;2023-08-31T00:15:41;22.10;70.40
41457;DHT22;27197;51.752;5.220;2023-08-31T00:18:10;22.10;69.30
41457;DHT22;27197;51.752;5.220;2023-08-31T00:20:39;22.20;69.40
41457;DHT22;27197;51.752;5.220;2023-08-31T00:23:11;22.00;66.70
41457;DHT22;27197;51.752;5.220;2023-08-31T00:25:41;21.90;66.80
41457;DHT22;27197;51.752;5.220;2023-08-31T00:28:11;21.50;65.70
41457;DHT22;27197;51.752;5.220;2023-08-31T00:30:45;21.30;65.30
41457;DHT22;27197;51.752;5.220;2023-08-31T00:33:14;21.40;71.00
41457;DHT22;27197;51.752;5.220;2023-08-31T00:35:48;21.30;69.60
41457;DHT22;27197;51.752;5.220;2023-08-31T00:38:16;21.30;69.70
41457;DHT22;27197;51.752;5.220;2023-08-31T00:40:44;21.40;66.10
41457;DHT22;27197;51.752;5.220;2023-08-31T00:43:14;21.50;67.60
41457;DHT22;27197;51.752;5.220;2023-08-31T00:45:48;21.30;63.80
41457;DHT22;27197;51.752;5.220;2023-08-31T00:48:18;21.50;69.90
41457;DHT22;27197;51.752;5.220;2023-08-31T00:50:48;21.50;67.70
41457;DHT22;27197;51.752;5.220;2023-08-31T00:53:20;21.40;64.10
41457;DHT22;27197;51.752;5.220;2023-08-31T00:55:54;21.50;71.60
41457;DHT22;27197;51.752;5.220;2023-08-31T00:58:21;21.60;72.00
41457;DHT22;27197;51.752;5.220;2023-08-31T01:14:07;21.90;67.60
41457;DHT22;27197;51.752;5.220;2023-08-31T01:16:34;22.00;71.00
41457;DHT22;27197;51.752;5.220;2023-08-31T01:19:09;22.00;67.10
41457;DHT22;27197;51.752;5.220;2023-08-31T01:21:38;21.90;67.30
41457;DHT22;27197;51.752;5.220;2023-08-31T01:24:10;21.60;65.40
41457;DHT22;27197;51.752;5.220;2023-08-31T01:26:41;21.10;65.70
41457;DHT22;27197;51.752;5.220;2023-08-31T01:29:13;21.00;69.50
41457;DHT22;27197;51.752;5.220;2023-08-31T01:31:44;21.00;71.50
41457;DHT22;27197;51.752;5.220;2023-08-31T01:34:11;21.40;71.20
41457;DHT22;27197;51.752;5.220;2023-08-31T01:36:43;21.50;68.90
41457;DHT22;27197;51.752;5.220;2023-08-31T01:39:24;21.70;67.20
41457;DHT22;27197;51.752;5.220;2023-08-31T01:41:55;21.70;70.60
41457;DHT22;27197;51.752;5.220;2023-08-31T01:44:22;21.80;70.60
41457;DHT22;27197;51.752;5.220;2023-08-31T01:47:01;21.80;68.90
41457;DHT22;27197;51.752;5.220;2023-08-31T01:49:26;21.80;70.60
41457;DHT22;27197;51.752;5.220;2023-08-31T01:52:00;21.90;70.10
41457;DHT22;27197;51.752;5.220;2023-08-31T01:54:29;22.00;71.10
41457;DHT22;27197;51.752;5.220;2023-08-31T01:57:04;22.00;70.20
41457;DHT22;27197;51.752;5.220;2023-08-31T01:59:34;22.10;66.90
41457;DHT22;27197;51.752;5.220;2023-08-31T02:02:09;21.90;69.30
41457;DHT22;27197;51.752;5.220;2023-08-31T02:04:38;21.80;70.20
41457;DHT22;27197;51.752;5.220;2023-08-31T02:07:09;21.90;69.60
41457;DHT22;27197;51.752;5.220;2023-08-31T02:09:39;22.00;68.70
41457;DHT22;27197;51.752;5.220;2023-08-31T02:12:10;22.00;69.60
41457;DHT22;27197;51.752;5.220;2023-08-31T02:14:40;22.00;70.60
41457;DHT22;27197;51.752;5.220;2023-08-31T02:17:15;22.00;67.20
41457;DHT22;27197;51.752;5.220;2023-08-31T02:19:46;22.00;70.20
41457;DHT22;27197;51.752;5.220;2023-08-31T02:22:20;22.00;68.40
41457;DHT22;27197;51.752;5.220;2023-08-31T02:24:51;22.10;70.20
41457;DHT22;27197;51.752;5.220;2023-08-31T02:27:27;22.10;69.90
41457;DHT22;27197;51.752;5.220;2023-08-31T02:29:56;21.90;64.10
41457;DHT22;27197;51.752;5.220;2023-08-31T02:32:28;21.90;69.10
41457;DHT22;27197;51.752;5.220;2023-08-31T02:35:04;21.80;70.50
41457;DHT22;27197;51.752;5.220;2023-08-31T02:37:32;21.90;68.80
41457;DHT22;27197;51.752;5.220;2023-08-31T02:40:06;21.90;69.10
41457;DHT22;27197;51.752;5.220;2023-08-31T02:42:35;21.80;69.40
41457;DHT22;27197;51.752;5.220;2023-08-31T02:45:05;21.80;70.40
41457;DHT22;27197;51.752;5.220;2023-08-31T02:47:38;21.90;71.00
41457;DHT22;27197;51.752;5.220;2023-08-31T02:50:08;21.90;70.80
41457;DHT22;27197;51.752;5.220;2023-08-31T02:52:43;21.80;69.90
41457;DHT22;27197;51.752;5.220;2023-08-31T02:55:13;21.50;69.70
41457;DHT22;27197;51.752;5.220;2023-08-31T02:57:48;21.60;66.40
41457;DHT22;27197;51.752;5.220;2023-08-31T03:11:00;21.60;66.30
41457;DHT22;27197;51.752;5.220;2023-08-31T03:13:35;21.40;65.30
41457;DHT22;27197;51.752;5.220;2023-08-31T03:16:04;21.10;70.30
41457;DHT22;27197;51.752;5.220;2023-08-31T03:18:36;21.00;66.80
41457;DHT22;27197;51.752;5.220;2023-08-31T03:21:06;20.80;73.10
41457;DHT22;27197;51.752;5.220;2023-08-31T03:23:36;20.90;65.70
41457;DHT22;27197;51.752;5.220;2023-08-31T03:26:11;21.00;72.80
41457;DHT22;27197;51.752;5.220;2023-08-31T03:28:41;20.90;71.50
41457;DHT22;27197;51.752;5.220;2023-08-31T03:31:15;21.10;72.20
41457;DHT22;27197;51.752;5.220;2023-08-31T03:33:44;21.20;70.00
41457;DHT22;27197;51.752;5.220;2023-08-31T03:36:16;21.20;67.70
41457;DHT22;27197;51.752;5.220;2023-08-31T03:38:46;21.10;71.00
41457;DHT22;27197;51.752;5.220;2023-08-31T03:41:21;21.20;71.80
41457;DHT22;27197;51.752;5.220;2023-08-31T03:43:50;21.40;71.70
41457;DHT22;27197;51.752;5.220;2023-08-31T03:46:20;21.50;71.40
41457;DHT22;27197;51.752;5.220;2023-08-31T03:48:52;21.60;68.70
41457;DHT22;27197;51.752;5.220;2023-08-31T03:51:21;21.30;68.60
41457;DHT22;27197;51.752;5.220;2023-08-31T03:53:54;21.10;67.60
41457;DHT22;27197;51.752;5.220;2023-08-31T03:56:25;21.00;65.70
41457;DHT22;27197;51.752;5.220;2023-08-31T03:59:02;20.80;64.30
41457;DHT22;27197;51.752;5.220;2023-08-31T04:01:32;20.80;70.80
41457;DHT22;27197;51.752;5.220;2023-08-31T04:04:05;20.70;67.30
41457;DHT22;27197;51.752;5.220;2023-08-31T04:06:34;20.80;70.80
41457;DHT22;27197;51.752;5.220;2023-08-31T04:09:06;21.10;69.50
41457;DHT22;27197;51.752;5.220;2023-08-31T04:11:35;20.90;68.90
41457;DHT22;27197;51.752;5.220;2023-08-31T04:14:08;21.10;65.80
41457;DHT22;27197;51.752;5.220;2023-08-31T04:16:41;20.80;69.20
41457;DHT22;27197;51.752;5.220;2023-08-31T04:19:14;20.90;72.10
41457;DHT22;27197;51.752;5.220;2023-08-31T04:21:47;20.80;67.50
41457;DHT22;27197;51.752;5.220;2023-08-31T04:24:17;20.80;68.80
41457;DHT22;27197;51.752;5.220;2023-08-31T04:26:50;20.60;69.30
41457;DHT22;27197;51.752;5.220;2023-08-31T04:29:21;20.70;69.40
41457;DHT22;27197;51.752;5.220;2023-08-31T04:31:54;20.70;71.30
41457;DHT22;27197;51.752;5.220;2023-08-31T04:34:25;20.50;69.40
41457;DHT22;27197;51.752;5.220;2023-08-31T04:36:55;20.30;64.90
41457;DHT22;27197;51.752;5.220;2023-08-31T04:39:29;20.00;65.80
41457;DHT22;27197;51.752;5.220;2023-08-31T04:41:58;19.80;70.30
41457;DHT22;27197;51.752;5.220;2023-08-31T04:44:33;20.20;72.30
41457;DHT22;27197;51.752;5.220;2023-08-31T04:47:02;20.70;72.30
41457;DHT22;27197;51.752;5.220;2023-08-31T04:49:35;21.00;72.50
41457;DHT22;27197;51.752;5.220;2023-08-31T04:52:07;21.10;71.50
41457;DHT22;27197;51.752;5.220;2023-08-31T04:54:38;21.00;70.40
41457;DHT22;27197;51.752;5.220;2023-08-31T04:57:08;21.00;70.00
41457;DHT22;27197;51.752;5.220;2023-08-31T04:59:37;21.00;71.50
41457;DHT22;27197;51.752;5.220;2023-08-31T05:02:08;21.00;68.30
41457;DHT22;27197;51.752;5.220;2023-08-31T05:04:40;21.10;71.80
41457;DHT22;27197;51.752;5.220;2023-08-31T05:07:10;20.70;67.40
41457;DHT22;27197;51.752;5.220;2023-08-31T05:09:40;20.70;65.50
41457;DHT22;27197;51.752;5.220;2023-08-31T05:12:14;20.90;69.30
41457;DHT22;27197;51.752;5.220;2023-08-31T05:14:45;20.90;67.90
41457;DHT22;27197;51.752;5.220;2023-08-31T05:17:18;21.00;71.90
41457;DHT22;27197;51.752;5.220;2023-08-31T05:19:48;20.80;69.90
41457;DHT22;27197;51.752;5.220;2023-08-31T05:22:20;20.70;69.50
41457;DHT22;27197;51.752;5.220;2023-08-31T05:24:51;20.90;70.50
41457;DHT22;27197;51.752;5.220;2023-08-31T05:27:25;20.90;72.40
41457;DHT22;27197;51.752;5.220;2023-08-31T05:29:54;21.10;70.80
41457;DHT22;27197;51.752;5.220;2023-08-31T05:32:27;21.30;77.40
41457;DHT22;27197;51.752;5.220;2023-08-31T05:34:54;21.40;75.80
41457;DHT22;27197;51.752;5.220;2023-08-31T05:37:22;21.20;73.60
41457;DHT22;27197;51.752;5.220;2023-08-31T05:39:53;21.30;76.50
41457;DHT22;27197;51.752;5.220;2023-08-31T05:42:23;21.40;78.70
41457;DHT22;27197;51.752;5.220;2023-08-31T05:44:57;21.30;69.70
41457;DHT22;27197;51.752;5.220;2023-08-31T05:47:25;21.10;74.80
41457;DHT22;27197;51.752;5.220;2023-08-31T05:49:57;21.30;78.30
41457;DHT22;27197;51.752;5.220;2023-08-31T05:52:27;21.40;78.60
41457;DHT22;27197;51.752;5.220;2023-08-31T05:55:01;21.10;76.80
41457;DHT22;27197;51.752;5.220;2023-08-31T05:57:30;21.10;74.90
41457;DHT22;27197;51.752;5.220;2023-08-31T06:00:04;21.00;72.40
41457;DHT22;27197;51.752;5.220;2023-08-31T06:02:36;20.80;71.70
41457;DHT22;27197;51.752;5.220;2023-08-31T06:07:56;20.50;77.20
41457;DHT22;27197;51.752;5.220;2023-08-31T06:10:27;20.40;69.60
41457;DHT22;27197;51.752;5.220;2023-08-31T06:12:57;20.50;74.30
41457;DHT22;27197;51.752;5.220;2023-08-31T06:15:28;20.60;73.00
41457;DHT22;27197;51.752;5.220;2023-08-31T06:17:58;20.40;74.30
41457;DHT22;27197;51.752;5.220;2023-08-31T06:20:29;20.30;69.30
41457;DHT22;27197;51.752;5.220;2023-08-31T06:23:01;20.30;77.90
41457;DHT22;27197;51.752;5.220;2023-08-31T06:25:37;20.30;73.20
41457;DHT22;27197;51.752;5.220;2023-08-31T06:28:08;20.50;75.90
41457;DHT22;27197;51.752;5.220;2023-08-31T06:30:38;20.60;70.10
41457;DHT22;27197;51.752;5.220;2023-08-31T06:33:10;20.50;77.30
41457;DHT22;27197;51.752;5.220;2023-08-31T06:35:40;20.60;76.30
41457;DHT22;27197;51.752;5.220;2023-08-31T06:38:12;20.90;76.30
41457;DHT22;27197;51.752;5.220;2023-08-31T06:40:46;21.00;75.80
41457;DHT22;27197;51.752;5.220;2023-08-31T06:43:17;21.20;75.80
41457;DHT22;27197;51.752;5.220;2023-08-31T06:45:50;21.10;76.10
41457;DHT22;27197;51.752;5.220;2023-08-31T06:48:23;21.30;75.30
41457;DHT22;27197;51.752;5.220;2023-08-31T06:50:56;21.40;75.80
41457;DHT22;27197;51.752;5.220;2023-08-31T06:53:25;21.20;72.60
41457;DHT22;27197;51.752;5.220;2023-08-31T06:55:55;21.20;74.20
41457;DHT22;27197;51.752;5.220;2023-08-31T06:58:28;20.80;69.90
41457;DHT22;27197;51.752;5.220;2023-08-31T07:00:59;20.90;74.30
41457;DHT22;27197;51.752;5.220;2023-08-31T07:03:30;20.70;74.70
41457;DHT22;27197;51.752;5.220;2023-08-31T07:06:01;20.60;71.50
41457;DHT22;27197;51.752;5.220;2023-08-31T07:08:32;20.50;71.30
41457;DHT22;27197;51.752;5.220;2023-08-31T07:11:03;20.60;74.40
41457;DHT22;27197;51.752;5.220;2023-08-31T07:13:32;20.80;77.80
41457;DHT22;27197;51.752;5.220;2023-08-31T07:16:03;21.00;73.70
41457;DHT22;27197;51.752;5.220;2023-08-31T07:18:38;21.00;70.00
41457;DHT22;27197;51.752;5.220;2023-08-31T07:21:08;20.60;71.40
41457;DHT22;27197;51.752;5.220;2023-08-31T07:26:28;20.50;73.80
41457;DHT22;27197;51.752;5.220;2023-08-31T07:28:56;20.50;76.80
41457;DHT22;27197;51.752;5.220;2023-08-31T07:31:26;20.90;77.60
41457;DHT22;27197;51.752;5.220;2023-08-31T07:33:57;21.00;74.10
41457;DHT22;27197;51.752;5.220;2023-08-31T07:36:31;21.00;71.90
41457;DHT22;27197;51.752;5.220;2023-08-31T07:39:04;20.80;74.80
41457;DHT22;27197;51.752;5.220;2023-08-31T07:41:38;20.70;75.90
41457;DHT22;27197;51.752;5.220;2023-08-31T07:44:10;20.90;76.90
41457;DHT22;27197;51.752;5.220;2023-08-31T07:46:39;21.20;75.40
41457;DHT22;27197;51.752;5.220;2023-08-31T07:49:12;21.20;75.80
41457;DHT22;27197;51.752;5.220;2023-08-31T07:51:44;21.30;76.10
41457;DHT22;27197;51.752;5.220;2023-08-31T07:54:22;21.40;73.00
41457;DHT22;27197;51.752;5.220;2023-08-31T07:56:51;21.40;75.00
41457;DHT22;27197;51.752;5.220;2023-08-31T07:59:24;21.40;73.70
41457;DHT22;27197;51.752;5.220;2023-08-31T08:01:54;21.20;73.00
41457;DHT22;27197;51.752;5.220;2023-08-31T08:04:24;21.20;76.90
41457;DHT22;27197;51.752;5.220;2023-08-31T08:06:59;21.30;75.70
41457;DHT22;27197;51.752;5.220;2023-08-31T08:09:29;21.40;74.00
41457;DHT22;27197;51.752;5.220;2023-08-31T08:12:00;21.50;75.60
41457;DHT22;27197;51.752;5.220;2023-08-31T08:14:30;21.30;74.90
41457;DHT22;27197;51.752;5.220;2023-08-31T08:17:00;21.40;75.90
41457;DHT22;27197;51.752;5.220;2023-08-31T08:19:31;21.40;71.90
41457;DHT22;27197;51.752;5.220;2023-08-31T08:22:00;21.40;73.50
41457;DHT22;27197;51.752;5.220;2023-08-31T08:24:33;21.40;75.60
41457;DHT22;27197;51.752;5.220;2023-08-31T08:27:03;21.50;75.50
41457;DHT22;27197;51.752;5.220;2023-08-31T08:29:36;21.50;74.30
41457;DHT22;27197;51.752;5.220;2023-08-31T08:32:10;21.50;72.40
41457;DHT22;27197;51.752;5.220;2023-08-31T08:34:45;21.50;76.00
41457;DHT22;27197;51.752;5.220;2023-08-31T08:37:17;21.60;72.40
41457;DHT22;27197;51.752;5.220;2023-08-31T08:39:53;21.50;71.40
41457;DHT22;27197;51.752;5.220;2023-08-31T08:42:28;21.50;72.50
41457;DHT22;27197;51.752;5.220;2023-08-31T08:44:57;21.50;72.60
41457;DHT22;27197;51.752;5.220;2023-08-31T08:47:27;21.60;74.50
41457;DHT22;27197;51.752;5.220;2023-08-31T08:49:56;21.50;70.90
41457;DHT22;27197;51.752;5.220;2023-08-31T08:52:32;21.50;72.50
41457;DHT22;27197;51.752;5.220;2023-08-31T08:55:01;21.50;71.00
41457;DHT22;27197;51.752;5.220;2023-08-31T08:57:35;21.50;72.30
41457;DHT22;27197;51.752;5.220;2023-08-31T09:00:06;21.50;71.20
41457;DHT22;27197;51.752;5.220;2023-08-31T09:02:36;21.40;72.80
41457;DHT22;27197;51.752;5.220;2023-08-31T09:05:09;21.60;75.00
41457;DHT22;27197;51.752;5.220;2023-08-31T09:07:38;21.60;72.20
41457;DHT22;27197;51.752;5.220;2023-08-31T09:10:09;21.60;71.70
41457;DHT22;27197;51.752;5.220;2023-08-31T09:12:40;21.60;70.60
41457;DHT22;27197;51.752;5.220;2023-08-31T09:15:10;21.60;71.90
41457;DHT22;27197;51.752;5.220;2023-08-31T09:17:42;21.70;75.10
41457;DHT22;27197;51.752;5.220;2023-08-31T09:20:11;21.80;71.90
41457;DHT22;27197;51.752;5.220;2023-08-31T09:22:44;21.70;74.70
41457;DHT22;27197;51.752;5.220;2023-08-31T09:25:12;21.80;71.60
41457;DHT22;27197;51.752;5.220;2023-08-31T09:27:44;22.00;77.00
41457;DHT22;27197;51.752;5.220;2023-08-31T09:30:14;21.90;72.50
41457;DHT22;27197;51.752;5.220;2023-08-31T09:32:51;22.00;71.90
41457;DHT22;27197;51.752;5.220;2023-08-31T09:35:17;22.00;74.50
41457;DHT22;27197;51.752;5.220;2023-08-31T09:37:59;22.00;70.70
41457;DHT22;27197;51.752;5.220;2023-08-31T09:40:29;22.00;73.30
41457;DHT22;27197;51.752;5.220;2023-08-31T09:42:58;22.00;73.80
41457;DHT22;27197;51.752;5.220;2023-08-31T09:45:30;22.00;75.40
41457;DHT22;27197;51.752;5.220;2023-08-31T09:48:06;22.10;73.10
41457;DHT22;27197;51.752;5.220;2023-08-31T09:50:37;22.10;73.00
41457;DHT22;27197;51.752;5.220;2023-08-31T09:53:09;22.10;72.80
41457;DHT22;27197;51.752;5.220;2023-08-31T09:55:40;22.00;71.30
41457;DHT22;27197;51.752;5.220;2023-08-31T09:58:08;22.00;70.90
41457;DHT22;27197;51.752;5.220;2023-08-31T10:00:37;22.00;71.80
41457;DHT22;27197;51.752;5.220;2023-08-31T10:03:05;22.00;70.30
41457;DHT22;27197;51.752;5.220;2023-08-31T10:05:33;22.00;72.30
41457;DHT22;27197;51.752;5.220;2023-08-31T10:08:00;22.00;66.70
41457;DHT22;27197;51.752;5.220;2023-08-31T10:10:29;22.00;71.00
41457;DHT22;27197;51.752;5.220;2023-08-31T10:12:56;21.90;67.90
41457;DHT22;27197;51.752;5.220;2023-08-31T10:15:30;22.00;67.40
41457;DHT22;27197;51.752;5.220;2023-08-31T10:17:59;21.90;64.90
41457;DHT22;27197;51.752;5.220;2023-08-31T10:20:29;22.00;70.00
41457;DHT22;27197;51.752;5.220;2023-08-31T10:23:09;22.10;72.00
41457;DHT22;27197;51.752;5.220;2023-08-31T10:28:21;22.00;66.60
41457;DHT22;27197;51.752;5.220;2023-08-31T10:31:07;21.90;71.50
41457;DHT22;27197;51.752;5.220;2023-08-31T10:33:46;22.00;69.60
41457;DHT22;27197;51.752;5.220;2023-08-31T10:36:16;22.10;72.90
41457;DHT22;27197;51.752;5.220;2023-08-31T10:41:35;22.30;73.80
41457;DHT22;27197;51.752;5.220;2023-08-31T10:44:25;22.30;73.60
41457;DHT22;27197;51.752;5.220;2023-08-31T10:47:00;22.30;73.40
41457;DHT22;27197;51.752;5.220;2023-08-31T10:49:31;22.30;73.40
41457;DHT22;27197;51.752;5.220;2023-08-31T10:52:19;22.30;73.20
41457;DHT22;27197;51.752;5.220;2023-08-31T10:54:56;22.30;73.10
41457;DHT22;27197;51.752;5.220;2023-08-31T10:57:33;22.30;73.00
41457;DHT22;27197;51.752;5.220;2023-08-31T11:00:01;22.30;73.00
41457;DHT22;27197;51.752;5.220;2023-08-31T11:02:44;22.30;73.00
41457;DHT22;27197;51.752;5.220;2023-08-31T11:08:04;22.30;73.30
41457;DHT22;27197;51.752;5.220;2023-08-31T11:10:38;22.30;73.70
41457;DHT22;27197;51.752;5.220;2023-08-31T11:13:07;22.40;73.70
41457;DHT22;27197;51.752;5.220;2023-08-31T11:15:41;22.40;73.90
41457;DHT22;27197;51.752;5.220;2023-08-31T11:18:31;22.30;73.60
41457;DHT22;27197;51.752;5.220;2023-08-31T11:20:58;22.30;71.70
41457;DHT22;27197;51.752;5.220;2023-08-31T11:23:30;22.30;73.10
41457;DHT22;27197;51.752;5.220;2023-08-31T11:26:00;22.30;73.20
41457;DHT22;27197;51.752;5.220;2023-08-31T11:28:34;22.30;69.50
41457;DHT22;27197;51.752;5.220;2023-08-31T11:31:03;22.20;70.90
41457;DHT22;27197;51.752;5.220;2023-08-31T11:33:34;22.10;69.90
41457;DHT22;27197;51.752;5.220;2023-08-31T11:36:05;22.00;68.00
41457;DHT22;27197;51.752;5.220;2023-08-31T11:38:40;22.00;71.40
41457;DHT22;27197;51.752;5.220;2023-08-31T11:41:08;22.10;71.60
41457;DHT22;27197;51.752;5.220;2023-08-31T11:43:38;22.20;71.00
41457;DHT22;27197;51.752;5.220;2023-08-31T11:46:14;22.20;73.70
41457;DHT22;27197;51.752;5.220;2023-08-31T11:48:44;22.20;70.30
41457;DHT22;27197;51.752;5.220;2023-08-31T11:51:14;22.20;69.70
41457;DHT22;27197;51.752;5.220;2023-08-31T11:56:47;22.20;70.40
41457;DHT22;27197;51.752;5.220;2023-08-31T11:59:16;22.20;70.50
41457;DHT22;27197;51.752;5.220;2023-08-31T12:01:46;22.20;69.30
41457;DHT22;27197;51.752;5.220;2023-08-31T12:04:26;22.30;69.90
41457;DHT22;27197;51.752;5.220;2023-08-31T12:07:02;22.30;67.50
41457;DHT22;27197;51.752;5.220;2023-08-31T12:09:32;22.30;71.90
41457;DHT22;27197;51.752;5.220;2023-08-31T12:12:02;22.40;68.90
41457;DHT22;27197;51.752;5.220;2023-08-31T12:14:31;22.40;69.90
41457;DHT22;27197;51.752;5.220;2023-08-31T12:17:05;22.40;70.00
41457;DHT22;27197;51.752;5.220;2023-08-31T12:19:37;22.50;73.70
41457;DHT22;27197;51.752;5.220;2023-08-31T12:22:08;22.60;73.90
41457;DHT22;27197;51.752;5.220;2023-08-31T12:24:40;22.50;65.90
41457;DHT22;27197;51.752;5.220;2023-08-31T12:27:11;22.50;69.00
41457;DHT22;27197;51.752;5.220;2023-08-31T12:29:41;22.50;72.40
41457;DHT22;27197;51.752;5.220;2023-08-31T12:32:15;22.50;67.80
41457;DHT22;27197;51.752;5.220;2023-08-31T12:34:44;22.50;68.70
41457;DHT22;27197;51.752;5.220;2023-08-31T12:37:15;22.50;69.70
41457;DHT22;27197;51.752;5.220;2023-08-31T12:39:45;22.50;70.70
41457;DHT22;27197;51.752;5.220;2023-08-31T12:42:21;22.50;71.90
41457;DHT22;27197;51.752;5.220;2023-08-31T12:44:50;22.50;68.90
41457;DHT22;27197;51.752;5.220;2023-08-31T12:47:25;22.50;69.50
41457;DHT22;27197;51.752;5.220;2023-08-31T12:49:53;22.50;70.30
41457;DHT22;27197;51.752;5.220;2023-08-31T12:52:27;22.50;66.50
41457;DHT22;27197;51.752;5.220;2023-08-31T12:54:57;22.50;67.80
41457;DHT22;27197;51.752;5.220;2023-08-31T12:57:31;22.50;68.80
41457;DHT22;27197;51.752;5.220;2023-08-31T13:00:01;22.50;68.90
41457;DHT22;27197;51.752;5.220;2023-08-31T13:02:32;22.50;70.50
41457;DHT22;27197;51.752;5.220;2023-08-31T13:05:03;22.50;67.70
41457;DHT22;27197;51.752;5.220;2023-08-31T13:07:36;22.60;71.20
41457;DHT22;27197;51.752;5.220;2023-08-31T13:10:07;22.50;70.00
41457;DHT22;27197;51.752;5.220;2023-08-31T13:12:37;22.50;67.90
41457;DHT22;27197;51.752;5.220;2023-08-31T13:15:09;22.50;65.90
41457;DHT22;27197;51.752;5.220;2023-08-31T13:17:43;22.50;64.50
41457;DHT22;27197;51.752;5.220;2023-08-31T13:20:15;22.50;66.90
41457;DHT22;27197;51.752;5.220;2023-08-31T13:22:45;22.50;67.80
41457;DHT22;27197;51.752;5.220;2023-08-31T13:25:19;22.60;70.60
41457;DHT22;27197;51.752;5.220;2023-08-31T13:27:48;22.60;68.30
41457;DHT22;27197;51.752;5.220;2023-08-31T13:30:23;22.70;68.50
41457;DHT22;27197;51.752;5.220;2023-08-31T13:45:45;22.70;64.00
41457;DHT22;27197;51.752;5.220;2023-08-31T13:48:21;22.90;65.70
41457;DHT22;27197;51.752;5.220;2023-08-31T13:50:54;22.90;70.40
41457;DHT22;27197;51.752;5.220;2023-08-31T13:53:24;22.90;71.80
41457;DHT22;27197;51.752;5.220;2023-08-31T13:55:54;22.90;72.30
41457;DHT22;27197;51.752;5.220;2023-08-31T13:58:27;22.90;71.90
41457;DHT22;27197;51.752;5.220;2023-08-31T14:01:00;22.90;69.40
41457;DHT22;27197;51.752;5.220;2023-08-31T14:03:32;22.90;71.70
41457;DHT22;27197;51.752;5.220;2023-08-31T14:06:01;22.90;71.40
41457;DHT22;27197;51.752;5.220;2023-08-31T14:08:35;22.90;68.10
41457;DHT22;27197;51.752;5.220;2023-08-31T14:11:03;22.80;71.30
41457;DHT22;27197;51.752;5.220;2023-08-31T14:13:42;22.90;70.60
41457;DHT22;27197;51.752;5.220;2023-08-31T14:16:11;22.90;71.40
41457;DHT22;27197;51.752;5.220;2023-08-31T14:18:45;22.80;67.60
41457;DHT22;27197;51.752;5.220;2023-08-31T14:21:20;22.80;69.50
41457;DHT22;27197;51.752;5.220;2023-08-31T14:23:49;22.80;66.50
41457;DHT22;27197;51.752;5.220;2023-08-31T14:26:20;22.80;67.90
41457;DHT22;27197;51.752;5.220;2023-08-31T14:28:54;22.80;67.30
41457;DHT22;27197;51.752;5.220;2023-08-31T14:31:22;22.80;66.40
41457;DHT22;27197;51.752;5.220;2023-08-31T14:33:54;22.80;65.80
41457;DHT22;27197;51.752;5.220;2023-08-31T14:36:25;22.80;68.10
41457;DHT22;27197;51.752;5.220;2023-08-31T14:38:58;22.90;70.10
41457;DHT22;27197;51.752;5.220;2023-08-31T14:41:30;22.90;70.60
41457;DHT22;27197;51.752;5.220;2023-08-31T14:44:01;22.90;69.60
41457;DHT22;27197;51.752;5.220;2023-08-31T14:46:31;22.90;67.40
41457;DHT22;27197;51.752;5.220;2023-08-31T14:49:04;22.90;67.90
41457;DHT22;27197;51.752;5.220;2023-08-31T14:51:34;22.80;65.50
41457;DHT22;27197;51.752;5.220;2023-08-31T14:54:08;22.90;68.80
41457;DHT22;27197;51.752;5.220;2023-08-31T14:56:39;22.90;66.60
41457;DHT22;27197;51.752;5.220;2023-08-31T14:59:14;22.90;68.80
41457;DHT22;27197;51.752;5.220;2023-08-31T15:01:42;22.90;67.40
41457;DHT22;27197;51.752;5.220;2023-08-31T15:04:17;22.90;69.50
41457;DHT22;27197;51.752;5.220;2023-08-31T15:06:46;22.90;69.00
41457;DHT22;27197;51.752;5.220;2023-08-31T15:09:14;22.90;67.60
41457;DHT22;27197;51.752;5.220;2023-08-31T15:11:44;23.00;71.20
41457;DHT22;27197;51.752;5.220;2023-08-31T15:14:15;22.90;66.00
41457;DHT22;27197;51.752;5.220;2023-08-31T15:16:45;22.90;67.40
41457;DHT22;27197;51.752;5.220;2023-08-31T15:19:17;22.90;67.60
41457;DHT22;27197;51.752;5.220;2023-08-31T15:21:52;22.90;68.00
41457;DHT22;27197;51.752;5.220;2023-08-31T15:24:22;22.90;70.60
41457;DHT22;27197;51.752;5.220;2023-08-31T15:26:52;23.00;75.40
41457;DHT22;27197;51.752;5.220;2023-08-31T15:29:22;23.00;74.00
41457;DHT22;27197;51.752;5.220;2023-08-31T15:31:52;23.00;74.50
41457;DHT22;27197;51.752;5.220;2023-08-31T15:34:21;23.00;67.10
41457;DHT22;27197;51.752;5.220;2023-08-31T15:36:50;23.00;74.20
41457;DHT22;27197;51.752;5.220;2023-08-31T15:39:27;23.00;72.10
41457;DHT22;27197;51.752;5.220;2023-08-31T15:41:55;23.00;70.10
41457;DHT22;27197;51.752;5.220;2023-08-31T15:44:27;23.00;72.10
41457;DHT22;27197;51.752;5.220;2023-08-31T15:46:57;23.00;71.10
41457;DHT22;27197;51.752;5.220;2023-08-31T15:49:29;23.00;73.50
41457;DHT22;27197;51.752;5.220;2023-08-31T15:51:59;23.00;75.80
41457;DHT22;27197;51.752;5.220;2023-08-31T15:54:31;23.10;79.00
41457;DHT22;27197;51.752;5.220;2023-08-31T15:57:01;23.10;81.70
41457;DHT22;27197;51.752;5.220;2023-08-31T15:59:36;23.10;74.40
41457;DHT22;27197;51.752;5.220;2023-08-31T16:02:24;23.10;80.50
41457;DHT22;27197;51.752;5.220;2023-08-31T16:04:56;23.10;81.90
41457;DHT22;27197;51.752;5.220;2023-08-31T16:07:26;23.20;82.30
41457;DHT22;27197;51.752;5.220;2023-08-31T16:10:01;23.10;77.50
41457;DHT22;27197;51.752;5.220;2023-08-31T16:12:33;23.10;77.80
41457;DHT22;27197;51.752;5.220;2023-08-31T16:15:09;23.10;78.40
41457;DHT22;27197;51.752;5.220;2023-08-31T16:17:38;23.10;70.60
41457;DHT22;27197;51.752;5.220;2023-08-31T16:20:09;23.10;73.30
41457;DHT22;27197;51.752;5.220;2023-08-31T16:22:39;23.10;69.30
41457;DHT22;27197;51.752;5.220;2023-08-31T16:25:11;23.10;71.00
41457;DHT22;27197;51.752;5.220;2023-08-31T16:27:43;23.10;66.20
41457;DHT22;27197;51.752;5.220;2023-08-31T16:30:18;23.00;70.00
41457;DHT22;27197;51.752;5.220;2023-08-31T16:32:47;23.10;68.80
41457;DHT22;27197;51.752;5.220;2023-08-31T16:35:18;23.10;70.90
41457;DHT22;27197;51.752;5.220;2023-08-31T16:37:48;23.20;74.10
41457;DHT22;27197;51.752;5.220;2023-08-31T16:40:21;23.20;70.00
41457;DHT22;27197;51.752;5.220;2023-08-31T16:42:54;23.20;75.70
41457;DHT22;27197;51.752;5.220;2023-08-31T16:56:11;23.10;69.60
41457;DHT22;27197;51.752;5.220;2023-08-31T16:58:40;23.10;64.80
41457;DHT22;27197;51.752;5.220;2023-08-31T17:01:12;23.10;71.00